sensor_id;sensor_type;location;lat;lon;timestamp;pressure;altitude;pressure_sealevel;temperature;humidity
58245;BME280;44550;43.864;25.986;2023-05-02T00:00:12;101634.97;;;14.40;53.04
58245;BME280;44550;43.864;25.986;2023-05-02T00:04:13;101639.31;;;14.24;52.87
58245;BME280;44550;43.864;25.986;2023-05-02T00:08:20;101642.66;;;14.02;54.37
58245;BME280;44550;43.864;25.986;2023-05-02T00:12:20;101647.78;;;13.86;54.09
58245;BME280;44550;43.864;25.986;2023-05-02T00:16:24;101646.00;;;13.84;54.83
58245;BME280;44550;43.864;25.986;2023-05-02T00:20:25;101655.63;;;13.79;55.03
58245;BME280;44550;43.864;25.986;2023-05-02T00:24:26;101656.38;;;13.66;55.27
58245;BME280;44550;43.864;25.986;2023-05-02T00:28:27;101655.31;;;13.47;55.57
58245;BME280;44550;43.864;25.986;2023-05-02T00:32:35;101659.59;;;13.37;55.58
58245;BME280;44550;43.864;25.986;2023-05-02T00:36:35;101656.94;;;13.34;55.72
58245;BME280;44550;43.864;25.986;2023-05-02T00:40:43;101666.44;;;13.21;55.83
58245;BME280;44550;43.864;25.986;2023-05-02T00:44:44;101660.13;;;13.07;57.91
58245;BME280;44550;43.864;25.986;2023-05-02T00:48:50;101670.69;;;13.11;57.86
58245;BME280;44550;43.864;25.986;2023-05-02T00:52:54;101661.94;;;13.12;57.88
58245;BME280;44550;43.864;25.986;2023-05-02T00:56:55;101656.91;;;13.28;57.26
58245;BME280;44550;43.864;25.986;2023-05-02T01:01:03;101674.19;;;13.12;57.64
58245;BME280;44550;43.864;25.986;2023-05-02T01:05:19;101665.09;;;12.82;58.00
58245;BME280;44550;43.864;25.986;2023-05-02T01:09:33;101667.44;;;12.61;59.16
58245;BME280;44550;43.864;25.986;2023-05-02T01:13:41;101671.94;;;12.69;58.55
58245;BME280;44550;43.864;25.986;2023-05-02T01:17:43;101666.72;;;12.73;59.27
58245;BME280;44550;43.864;25.986;2023-05-02T01:21:51;101662.56;;;12.90;58.37
58245;BME280;44550;43.864;25.986;2023-05-02T01:26:39;101664.31;;;12.91;58.06
58245;BME280;44550;43.864;25.986;2023-05-02T01:30:47;101667.56;;;12.70;57.90
58245;BME280;44550;43.864;25.986;2023-05-02T01:34:50;101660.44;;;12.61;58.36
58245;BME280;44550;43.864;25.986;2023-05-02T01:38:51;101665.50;;;12.48;58.77
58245;BME280;44550;43.864;25.986;2023-05-02T01:42:55;101658.50;;;12.48;58.29
58245;BME280;44550;43.864;25.986;2023-05-02T01:47:00;101666.38;;;12.48;58.58
58245;BME280;44550;43.864;25.986;2023-05-02T01:51:04;101676.03;;;12.49;59.67
58245;BME280;44550;43.864;25.986;2023-05-02T01:55:07;101670.41;;;12.23;59.86
58245;BME280;44550;43.864;25.986;2023-05-02T01:59:14;101669.59;;;12.27;59.46
58245;BME280;44550;43.864;25.986;2023-05-02T02:03:18;101673.22;;;12.35;60.35
58245;BME280;44550;43.864;25.986;2023-05-02T02:07:23;101680.94;;;12.28;61.06
58245;BME280;44550;43.864;25.986;2023-05-02T02:11:26;101676.47;;;12.19;61.53
58245;BME280;44550;43.864;25.986;2023-05-02T02:15:33;101671.19;;;12.16;61.55
58245;BME280;44550;43.864;25.986;2023-05-02T02:19:37;101673.13;;;12.31;61.73
58245;BME280;44550;43.864;25.986;2023-05-02T02:23:42;101678.81;;;12.61;61.28
58245;BME280;44550;43.864;25.986;2023-05-02T02:27:49;101674.34;;;12.54;61.08
58245;BME280;44550;43.864;25.986;2023-05-02T02:31:57;101676.63;;;12.31;60.79
58245;BME280;44550;43.864;25.986;2023-05-02T02:36:02;101678.06;;;12.11;59.15
58245;BME280;44550;43.864;25.986;2023-05-02T02:40:07;101683.13;;;11.98;60.04
58245;BME280;44550;43.864;25.986;2023-05-02T02:44:15;101689.28;;;11.99;60.64
58245;BME280;44550;43.864;25.986;2023-05-02T02:48:23;101681.41;;;11.99;60.47
58245;BME280;44550;43.864;25.986;2023-05-02T02:52:30;101684.25;;;12.13;60.00
58245;BME280;44550;43.864;25.986;2023-05-02T02:56:50;101686.34;;;12.35;59.17
58245;BME280;44550;43.864;25.986;2023-05-02T03:00:56;101689.94;;;12.43;58.95
58245;BME280;44550;43.864;25.986;2023-05-02T03:04:57;101688.91;;;12.34;58.71
58245;BME280;44550;43.864;25.986;2023-05-02T03:09:02;101690.66;;;12.32;59.17
58245;BME280;44550;43.864;25.986;2023-05-02T03:13:02;101690.56;;;12.27;61.13
58245;BME280;44550;43.864;25.986;2023-05-02T03:17:03;101703.72;;;12.30;62.02
58245;BME280;44550;43.864;25.986;2023-05-02T03:26:58;101707.63;;;11.99;65.21
58245;BME280;44550;43.864;25.986;2023-05-02T03:35:28;101713.19;;;12.19;67.87
58245;BME280;44550;43.864;25.986;2023-05-02T03:39:31;101721.94;;;12.21;69.47
58245;BME280;44550;43.864;25.986;2023-05-02T03:43:36;101719.31;;;12.19;71.42
58245;BME280;44550;43.864;25.986;2023-05-02T03:47:37;101726.16;;;12.11;73.46
58245;BME280;44550;43.864;25.986;2023-05-02T03:51:37;101737.09;;;12.39;74.06
58245;BME280;44550;43.864;25.986;2023-05-02T03:55:38;101743.06;;;12.89;71.84
58245;BME280;44550;43.864;25.986;2023-05-02T03:59:41;101746.47;;;13.52;69.13
58245;BME280;44550;43.864;25.986;2023-05-02T04:03:46;101742.56;;;14.03;67.33
58245;BME280;44550;43.864;25.986;2023-05-02T04:07:49;101740.31;;;14.49;66.62
58245;BME280;44550;43.864;25.986;2023-05-02T04:11:50;101743.09;;;14.69;65.67
58245;BME280;44550;43.864;25.986;2023-05-02T04:15:53;101746.69;;;14.85;64.74
58245;BME280;44550;43.864;25.986;2023-05-02T04:19:54;101747.56;;;14.86;63.62
58245;BME280;44550;43.864;25.986;2023-05-02T04:23:59;101748.50;;;14.94;62.03
58245;BME280;44550;43.864;25.986;2023-05-02T04:28:02;101750.09;;;14.66;61.02
58245;BME280;44550;43.864;25.986;2023-05-02T04:32:05;101750.28;;;14.99;60.10
58245;BME280;44550;43.864;25.986;2023-05-02T04:36:05;101748.66;;;15.27;59.92
58245;BME280;44550;43.864;25.986;2023-05-02T04:40:08;101744.31;;;15.40;58.42
58245;BME280;44550;43.864;25.986;2023-05-02T04:44:12;101752.34;;;15.80;56.45
58245;BME280;44550;43.864;25.986;2023-05-02T04:48:15;101751.47;;;15.90;53.95
58245;BME280;44550;43.864;25.986;2023-05-02T04:52:16;101759.34;;;15.77;52.99
58245;BME280;44550;43.864;25.986;2023-05-02T04:56:17;101760.16;;;15.54;52.71
58245;BME280;44550;43.864;25.986;2023-05-02T05:00:19;101763.66;;;15.62;52.60
58245;BME280;44550;43.864;25.986;2023-05-02T05:04:22;101759.25;;;15.50;54.04
58245;BME280;44550;43.864;25.986;2023-05-02T05:08:22;101769.06;;;15.96;52.42
58245;BME280;44550;43.864;25.986;2023-05-02T05:12:25;101767.28;;;16.35;51.57
58245;BME280;44550;43.864;25.986;2023-05-02T05:16:25;101764.66;;;16.56;51.09
58245;BME280;44550;43.864;25.986;2023-05-02T05:20:29;101764.59;;;16.90;51.03
58245;BME280;44550;43.864;25.986;2023-05-02T05:24:30;101769.75;;;17.25;49.32
58245;BME280;44550;43.864;25.986;2023-05-02T05:28:31;101775.91;;;17.32;46.41
58245;BME280;44550;43.864;25.986;2023-05-02T05:32:33;101769.84;;;16.95;46.63
58245;BME280;44550;43.864;25.986;2023-05-02T05:36:37;101775.03;;;17.30;45.91
58245;BME280;44550;43.864;25.986;2023-05-02T05:40:38;101777.41;;;17.85;44.89
58245;BME280;44550;43.864;25.986;2023-05-02T05:44:38;101781.06;;;17.53;44.22
58245;BME280;44550;43.864;25.986;2023-05-02T05:48:39;101781.84;;;17.81;44.70
58245;BME280;44550;43.864;25.986;2023-05-02T05:52:43;101789.59;;;18.04;43.33
58245;BME280;44550;43.864;25.986;2023-05-02T05:56:44;101796.94;;;17.56;44.24
58245;BME280;44550;43.864;25.986;2023-05-02T06:00:51;101799.66;;;17.38;45.86
58245;BME280;44550;43.864;25.986;2023-05-02T06:04:52;101809.41;;;17.25;47.14
58245;BME280;44550;43.864;25.986;2023-05-02T06:08:55;101804.97;;;17.33;47.77
58245;BME280;44550;43.864;25.986;2023-05-02T06:12:57;101797.75;;;17.65;46.53
58245;BME280;44550;43.864;25.986;2023-05-02T06:17:02;101794.25;;;17.58;46.22
58245;BME280;44550;43.864;25.986;2023-05-02T06:21:03;101799.50;;;17.69;45.79
58245;BME280;44550;43.864;25.986;2023-05-02T06:25:07;101791.53;;;17.73;45.89
58245;BME280;44550;43.864;25.986;2023-05-02T06:29:07;101800.34;;;17.75;46.23
58245;BME280;44550;43.864;25.986;2023-05-02T06:33:06;101783.50;;;17.93;46.99
58245;BME280;44550;43.864;25.986;2023-05-02T06:37:08;101785.88;;;18.30;45.61
58245;BME280;44550;43.864;25.986;2023-05-02T06:41:13;101782.84;;;18.73;45.47
58245;BME280;44550;43.864;25.986;2023-05-02T06:45:14;101770.97;;;19.11;44.06
58245;BME280;44550;43.864;25.986;2023-05-02T06:49:14;101770.47;;;19.47;43.16
58245;BME280;44550;43.864;25.986;2023-05-02T06:53:14;101771.91;;;19.75;43.36
58245;BME280;44550;43.864;25.986;2023-05-02T06:57:17;101771.53;;;19.98;43.03
58245;BME280;44550;43.864;25.986;2023-05-02T07:01:18;101775.25;;;19.86;43.55
58245;BME280;44550;43.864;25.986;2023-05-02T07:05:19;101774.56;;;20.30;42.80
58245;BME280;44550;43.864;25.986;2023-05-02T07:09:23;101776.84;;;20.52;42.30
58245;BME280;44550;43.864;25.986;2023-05-02T07:13:29;101785.09;;;20.35;42.73
58245;BME280;44550;43.864;25.986;2023-05-02T07:17:41;101777.94;;;20.38;43.55
58245;BME280;44550;43.864;25.986;2023-05-02T07:22:18;101775.72;;;20.67;43.28
58245;BME280;44550;43.864;25.986;2023-05-02T07:26:14;101778.72;;;20.45;43.75
58245;BME280;44550;43.864;25.986;2023-05-02T07:35:09;101773.94;;;20.67;44.13
58245;BME280;44550;43.864;25.986;2023-05-02T07:39:28;101758.66;;;20.78;44.74
58245;BME280;44550;43.864;25.986;2023-05-02T07:43:36;101769.59;;;20.63;43.35
58245;BME280;44550;43.864;25.986;2023-05-02T07:47:45;101756.19;;;20.68;43.52
58245;BME280;44550;43.864;25.986;2023-05-02T07:51:59;101770.84;;;20.90;43.18
58245;BME280;44550;43.864;25.986;2023-05-02T07:55:59;101762.06;;;21.28;42.53
58245;BME280;44550;43.864;25.986;2023-05-02T08:00:00;101776.22;;;21.71;35.60
58245;BME280;44550;43.864;25.986;2023-05-02T08:04:08;101765.44;;;22.16;30.41
58245;BME280;44550;43.864;25.986;2023-05-02T08:08:12;101770.97;;;22.42;28.12
58245;BME280;44550;43.864;25.986;2023-05-02T08:12:12;101768.66;;;22.63;28.07
58245;BME280;44550;43.864;25.986;2023-05-02T08:16:12;101769.34;;;22.37;28.20
58245;BME280;44550;43.864;25.986;2023-05-02T08:20:12;101763.91;;;22.04;27.45
58245;BME280;44550;43.864;25.986;2023-05-02T08:24:15;101758.91;;;22.27;28.10
58245;BME280;44550;43.864;25.986;2023-05-02T08:28:14;101758.81;;;22.31;27.66
58245;BME280;44550;43.864;25.986;2023-05-02T08:32:18;101756.38;;;22.21;28.22
58245;BME280;44550;43.864;25.986;2023-05-02T08:36:27;101756.91;;;22.00;29.05
58245;BME280;44550;43.864;25.986;2023-05-02T08:40:32;101765.19;;;22.59;27.98
58245;BME280;44550;43.864;25.986;2023-05-02T08:44:39;101763.34;;;22.61;28.44
58245;BME280;44550;43.864;25.986;2023-05-02T08:48:43;101748.25;;;22.62;27.58
58245;BME280;44550;43.864;25.986;2023-05-02T08:52:48;101740.59;;;22.48;27.97
58245;BME280;44550;43.864;25.986;2023-05-02T08:56:51;101752.69;;;22.27;27.18
58245;BME280;44550;43.864;25.986;2023-05-02T09:00:54;101761.44;;;22.66;27.30
58245;BME280;44550;43.864;25.986;2023-05-02T09:04:55;101762.38;;;22.64;27.10
58245;BME280;44550;43.864;25.986;2023-05-02T09:08:59;101758.28;;;22.52;27.70
58245;BME280;44550;43.864;25.986;2023-05-02T09:17:28;101744.97;;;22.83;27.41
58245;BME280;44550;43.864;25.986;2023-05-02T09:21:40;101743.94;;;22.89;26.81
58245;BME280;44550;43.864;25.986;2023-05-02T09:25:41;101733.84;;;22.67;26.66
58245;BME280;44550;43.864;25.986;2023-05-02T09:29:51;101725.41;;;23.15;26.11
58245;BME280;44550;43.864;25.986;2023-05-02T09:34:07;101717.50;;;23.12;26.02
58245;BME280;44550;43.864;25.986;2023-05-02T09:38:07;101716.75;;;23.07;26.14
58245;BME280;44550;43.864;25.986;2023-05-02T09:42:23;101719.94;;;22.89;26.58
58245;BME280;44550;43.864;25.986;2023-05-02T09:46:29;101715.19;;;23.00;26.25
58245;BME280;44550;43.864;25.986;2023-05-02T09:50:41;101710.69;;;23.32;25.34
58245;BME280;44550;43.864;25.986;2023-05-02T09:54:42;101705.19;;;23.07;24.76
58245;BME280;44550;43.864;25.986;2023-05-02T09:58:43;101714.13;;;23.06;24.69
58245;BME280;44550;43.864;25.986;2023-05-02T10:02:43;101701.38;;;23.45;23.84
58245;BME280;44550;43.864;25.986;2023-05-02T10:06:49;101702.13;;;23.49;23.81
58245;BME280;44550;43.864;25.986;2023-05-02T10:10:52;101708.53;;;23.43;24.52
58245;BME280;44550;43.864;25.986;2023-05-02T10:14:54;101704.13;;;23.70;23.41
58245;BME280;44550;43.864;25.986;2023-05-02T10:18:57;101702.94;;;23.51;23.03
58245;BME280;44550;43.864;25.986;2023-05-02T10:23:01;101690.03;;;23.65;24.09
58245;BME280;44550;43.864;25.986;2023-05-02T10:27:05;101684.09;;;23.85;23.19
58245;BME280;44550;43.864;25.986;2023-05-02T10:31:07;101688.13;;;23.70;23.72
58245;BME280;44550;43.864;25.986;2023-05-02T10:35:09;101687.00;;;23.49;23.55
58245;BME280;44550;43.864;25.986;2023-05-02T10:39:11;101689.47;;;23.83;23.65
58245;BME280;44550;43.864;25.986;2023-05-02T10:43:12;101680.81;;;23.47;23.52
58245;BME280;44550;43.864;25.986;2023-05-02T10:47:18;101687.63;;;23.29;23.94
58245;BME280;44550;43.864;25.986;2023-05-02T10:51:25;101683.25;;;23.83;23.94
58245;BME280;44550;43.864;25.986;2023-05-02T10:55:31;101675.13;;;24.37;23.12
58245;BME280;44550;43.864;25.986;2023-05-02T10:59:32;101675.09;;;24.64;23.22
58245;BME280;44550;43.864;25.986;2023-05-02T11:03:52;101672.88;;;24.25;23.20
58245;BME280;44550;43.864;25.986;2023-05-02T11:12:09;101685.59;;;24.19;23.29
58245;BME280;44550;43.864;25.986;2023-05-02T11:16:12;101686.06;;;24.05;24.11
58245;BME280;44550;43.864;25.986;2023-05-02T11:24:37;101667.84;;;24.43;24.10
58245;BME280;44550;43.864;25.986;2023-05-02T11:28:41;101672.59;;;24.33;23.31
58245;BME280;44550;43.864;25.986;2023-05-02T11:33:13;101669.13;;;24.56;23.25
58245;BME280;44550;43.864;25.986;2023-05-02T11:37:18;101661.44;;;24.47;23.53
58245;BME280;44550;43.864;25.986;2023-05-02T11:41:21;101664.91;;;24.50;23.70
58245;BME280;44550;43.864;25.986;2023-05-02T11:45:23;101660.47;;;24.73;22.43
58245;BME280;44550;43.864;25.986;2023-05-02T11:49:45;101659.47;;;24.52;23.08
58245;BME280;44550;43.864;25.986;2023-05-02T11:53:45;101656.16;;;24.45;22.28
58245;BME280;44550;43.864;25.986;2023-05-02T11:57:45;101651.50;;;24.25;22.06
58245;BME280;44550;43.864;25.986;2023-05-02T12:01:49;101650.56;;;24.26;22.15
58245;BME280;44550;43.864;25.986;2023-05-02T12:05:50;101637.97;;;24.78;22.71
58245;BME280;44550;43.864;25.986;2023-05-02T12:09:50;101634.97;;;24.64;22.11
58245;BME280;44550;43.864;25.986;2023-05-02T12:13:51;101621.88;;;24.31;22.31
58245;BME280;44550;43.864;25.986;2023-05-02T12:17:57;101634.44;;;24.29;22.23
58245;BME280;44550;43.864;25.986;2023-05-02T12:22:00;101625.16;;;24.14;23.12
58245;BME280;44550;43.864;25.986;2023-05-02T12:26:09;101617.34;;;24.58;22.49
58245;BME280;44550;43.864;25.986;2023-05-02T12:30:24;101611.66;;;24.44;22.74
58245;BME280;44550;43.864;25.986;2023-05-02T12:34:33;101613.56;;;24.64;23.50
58245;BME280;44550;43.864;25.986;2023-05-02T12:38:34;101602.28;;;24.79;22.42
58245;BME280;44550;43.864;25.986;2023-05-02T12:42:37;101602.81;;;24.66;22.84
58245;BME280;44550;43.864;25.986;2023-05-02T12:46:37;101591.41;;;24.84;22.74
58245;BME280;44550;43.864;25.986;2023-05-02T12:51:03;101590.53;;;24.83;22.65
58245;BME280;44550;43.864;25.986;2023-05-02T12:55:19;101580.09;;;24.77;23.18
58245;BME280;44550;43.864;25.986;2023-05-02T12:59:24;101581.41;;;24.66;24.01
58245;BME280;44550;43.864;25.986;2023-05-02T13:03:25;101573.38;;;25.11;23.35
58245;BME280;44550;43.864;25.986;2023-05-02T13:07:30;101570.44;;;24.95;23.21
58245;BME280;44550;43.864;25.986;2023-05-02T13:11:31;101577.00;;;25.10;21.92
58245;BME280;44550;43.864;25.986;2023-05-02T13:15:38;101570.28;;;24.76;21.96
58245;BME280;44550;43.864;25.986;2023-05-02T13:19:42;101565.41;;;25.09;21.96
58245;BME280;44550;43.864;25.986;2023-05-02T13:24:04;101575.09;;;25.14;22.20
58245;BME280;44550;43.864;25.986;2023-05-02T13:28:04;101567.41;;;24.59;22.70
58245;BME280;44550;43.864;25.986;2023-05-02T13:32:05;101561.75;;;24.67;22.76
58245;BME280;44550;43.864;25.986;2023-05-02T13:36:05;101557.97;;;24.72;23.26
58245;BME280;44550;43.864;25.986;2023-05-02T13:40:09;101560.72;;;24.71;23.57
58245;BME280;44550;43.864;25.986;2023-05-02T13:44:09;101541.31;;;24.88;23.15
58245;BME280;44550;43.864;25.986;2023-05-02T13:48:10;101553.00;;;24.85;23.27
58245;BME280;44550;43.864;25.986;2023-05-02T13:52:11;101541.00;;;24.95;23.75
58245;BME280;44550;43.864;25.986;2023-05-02T13:56:17;101534.78;;;24.95;24.30
58245;BME280;44550;43.864;25.986;2023-05-02T14:00:17;101528.78;;;24.66;23.95
58245;BME280;44550;43.864;25.986;2023-05-02T14:04:17;101535.63;;;24.51;24.28
58245;BME280;44550;43.864;25.986;2023-05-02T14:08:20;101543.06;;;24.43;24.44
58245;BME280;44550;43.864;25.986;2023-05-02T14:12:24;101543.22;;;24.62;23.96
58245;BME280;44550;43.864;25.986;2023-05-02T14:16:25;101530.47;;;24.69;24.56
58245;BME280;44550;43.864;25.986;2023-05-02T14:20:26;101525.72;;;24.77;23.76
58245;BME280;44550;43.864;25.986;2023-05-02T14:24:28;101526.13;;;24.66;24.75
58245;BME280;44550;43.864;25.986;2023-05-02T14:28:32;101523.72;;;24.82;24.90
58245;BME280;44550;43.864;25.986;2023-05-02T14:32:35;101523.16;;;24.74;24.32
58245;BME280;44550;43.864;25.986;2023-05-02T14:36:34;101520.41;;;24.75;24.06
58245;BME280;44550;43.864;25.986;2023-05-02T14:40:37;101516.28;;;24.67;24.74
58245;BME280;44550;43.864;25.986;2023-05-02T14:44:38;101527.22;;;24.84;23.89
58245;BME280;44550;43.864;25.986;2023-05-02T14:48:38;101520.38;;;24.77;23.91
58245;BME280;44550;43.864;25.986;2023-05-02T14:52:37;101514.44;;;24.69;23.49
58245;BME280;44550;43.864;25.986;2023-05-02T14:56:37;101512.50;;;24.72;24.41
58245;BME280;44550;43.864;25.986;2023-05-02T15:00:39;101516.72;;;24.56;24.19
58245;BME280;44550;43.864;25.986;2023-05-02T15:04:39;101508.25;;;24.67;24.85
58245;BME280;44550;43.864;25.986;2023-05-02T15:08:48;101513.44;;;24.71;24.54
58245;BME280;44550;43.864;25.986;2023-05-02T15:12:48;101513.75;;;24.64;24.96
58245;BME280;44550;43.864;25.986;2023-05-02T15:16:51;101517.34;;;24.39;25.07
58245;BME280;44550;43.864;25.986;2023-05-02T15:20:50;101524.28;;;24.45;25.61
58245;BME280;44550;43.864;25.986;2023-05-02T15:24:50;101527.41;;;24.56;25.16
58245;BME280;44550;43.864;25.986;2023-05-02T15:28:51;101522.56;;;24.66;25.44
58245;BME280;44550;43.864;25.986;2023-05-02T15:32:57;101527.84;;;24.45;25.54
58245;BME280;44550;43.864;25.986;2023-05-02T15:36:58;101525.88;;;24.02;26.62
58245;BME280;44550;43.864;25.986;2023-05-02T15:40:59;101534.78;;;24.26;25.93
58245;BME280;44550;43.864;25.986;2023-05-02T15:44:59;101530.59;;;24.19;26.12
58245;BME280;44550;43.864;25.986;2023-05-02T15:49:01;101526.28;;;23.91;26.98
58245;BME280;44550;43.864;25.986;2023-05-02T15:53:02;101521.09;;;23.86;27.00
58245;BME280;44550;43.864;25.986;2023-05-02T15:57:05;101514.53;;;23.95;26.89
58245;BME280;44550;43.864;25.986;2023-05-02T16:01:09;101531.22;;;23.77;27.71
58245;BME280;44550;43.864;25.986;2023-05-02T16:05:11;101534.09;;;23.44;27.96
58245;BME280;44550;43.864;25.986;2023-05-02T16:09:11;101538.63;;;23.42;28.07
58245;BME280;44550;43.864;25.986;2023-05-02T16:13:12;101532.66;;;23.34;28.18
58245;BME280;44550;43.864;25.986;2023-05-02T16:17:13;101532.06;;;23.26;28.40
58245;BME280;44550;43.864;25.986;2023-05-02T16:21:16;101527.97;;;23.15;28.61
58245;BME280;44550;43.864;25.986;2023-05-02T16:25:16;101528.94;;;23.13;29.05
58245;BME280;44550;43.864;25.986;2023-05-02T16:29:17;101529.72;;;22.88;28.89
58245;BME280;44550;43.864;25.986;2023-05-02T16:33:17;101528.66;;;22.64;28.52
58245;BME280;44550;43.864;25.986;2023-05-02T16:37:23;101528.53;;;22.69;28.82
58245;BME280;44550;43.864;25.986;2023-05-02T16:41:24;101533.28;;;22.30;29.64
58245;BME280;44550;43.864;25.986;2023-05-02T16:45:40;101539.19;;;22.39;30.08
58245;BME280;44550;43.864;25.986;2023-05-02T16:49:43;101544.75;;;22.32;29.66
58245;BME280;44550;43.864;25.986;2023-05-02T16:53:47;101550.84;;;22.04;29.94
58245;BME280;44550;43.864;25.986;2023-05-02T16:57:48;101551.88;;;21.98;30.18
58245;BME280;44550;43.864;25.986;2023-05-02T17:01:51;101554.34;;;21.72;30.60
58245;BME280;44550;43.864;25.986;2023-05-02T17:05:51;101560.03;;;21.60;30.14
58245;BME280;44550;43.864;25.986;2023-05-02T17:09:53;101572.44;;;21.23;30.54
58245;BME280;44550;43.864;25.986;2023-05-02T17:13:57;101583.06;;;21.23;30.76
58245;BME280;44550;43.864;25.986;2023-05-02T17:18:00;101583.34;;;21.13;31.26
58245;BME280;44550;43.864;25.986;2023-05-02T17:22:06;101587.22;;;20.98;31.76
58245;BME280;44550;43.864;25.986;2023-05-02T17:26:07;101597.50;;;20.73;32.26
58245;BME280;44550;43.864;25.986;2023-05-02T17:30:12;101601.25;;;20.64;32.53
58245;BME280;44550;43.864;25.986;2023-05-02T17:34:13;101610.41;;;20.46;32.87
58245;BME280;44550;43.864;25.986;2023-05-02T17:38:13;101611.47;;;20.39;33.11
58245;BME280;44550;43.864;25.986;2023-05-02T17:42:16;101620.66;;;20.21;33.13
58245;BME280;44550;43.864;25.986;2023-05-02T17:46:19;101631.88;;;19.89;33.10
58245;BME280;44550;43.864;25.986;2023-05-02T17:50:28;101626.97;;;19.66;33.38
58245;BME280;44550;43.864;25.986;2023-05-02T17:54:32;101629.91;;;19.46;33.57
58245;BME280;44550;43.864;25.986;2023-05-02T17:58:37;101637.03;;;19.44;33.87
58245;BME280;44550;43.864;25.986;2023-05-02T18:02:38;101643.38;;;19.34;34.33
58245;BME280;44550;43.864;25.986;2023-05-02T18:06:38;101639.28;;;19.10;35.33
58245;BME280;44550;43.864;25.986;2023-05-02T18:10:38;101635.13;;;18.92;35.56
58245;BME280;44550;43.864;25.986;2023-05-02T18:14:41;101627.28;;;18.84;35.52
58245;BME280;44550;43.864;25.986;2023-05-02T18:18:40;101616.19;;;18.50;35.47
58245;BME280;44550;43.864;25.986;2023-05-02T18:22:40;101617.22;;;18.38;35.33
58245;BME280;44550;43.864;25.986;2023-05-02T18:26:41;101620.88;;;18.28;34.96
58245;BME280;44550;43.864;25.986;2023-05-02T18:30:43;101619.25;;;18.15;35.31
58245;BME280;44550;43.864;25.986;2023-05-02T18:34:45;101627.28;;;18.04;35.26
58245;BME280;44550;43.864;25.986;2023-05-02T18:38:44;101634.34;;;18.03;35.28
58245;BME280;44550;43.864;25.986;2023-05-02T18:42:44;101642.44;;;17.87;35.39
58245;BME280;44550;43.864;25.986;2023-05-02T18:46:45;101654.16;;;17.55;35.98
58245;BME280;44550;43.864;25.986;2023-05-02T18:50:45;101663.78;;;17.57;35.86
58245;BME280;44550;43.864;25.986;2023-05-02T18:54:50;101673.53;;;17.54;35.87
58245;BME280;44550;43.864;25.986;2023-05-02T18:58:50;101671.78;;;17.51;35.92
58245;BME280;44550;43.864;25.986;2023-05-02T19:02:55;101670.88;;;17.54;36.04
58245;BME280;44550;43.864;25.986;2023-05-02T19:06:56;101670.91;;;17.49;36.08
58245;BME280;44550;43.864;25.986;2023-05-02T19:10:59;101679.94;;;17.11;36.86
58245;BME280;44550;43.864;25.986;2023-05-02T19:15:00;101688.78;;;17.07;37.09
58245;BME280;44550;43.864;25.986;2023-05-02T19:19:05;101691.44;;;17.06;37.17
58245;BME280;44550;43.864;25.986;2023-05-02T19:23:08;101707.38;;;16.78;37.54
58245;BME280;44550;43.864;25.986;2023-05-02T19:27:16;101724.13;;;16.62;38.01
58245;BME280;44550;43.864;25.986;2023-05-02T19:31:19;101719.78;;;16.47;38.35
58245;BME280;44550;43.864;25.986;2023-05-02T19:35:22;101727.69;;;16.47;38.59
58245;BME280;44550;43.864;25.986;2023-05-02T19:39:24;101722.44;;;16.19;39.17
58245;BME280;44550;43.864;25.986;2023-05-02T19:43:25;101728.59;;;15.94;39.77
58245;BME280;44550;43.864;25.986;2023-05-02T19:47:28;101730.34;;;15.75;40.07
58245;BME280;44550;43.864;25.986;2023-05-02T19:51:40;101725.94;;;15.77;40.14
58245;BME280;44550;43.864;25.986;2023-05-02T19:55:42;101722.34;;;15.63;40.37
58245;BME280;44550;43.864;25.986;2023-05-02T19:59:42;101732.91;;;15.58;40.54
58245;BME280;44550;43.864;25.986;2023-05-02T20:03:47;101727.66;;;15.57;40.30
58245;BME280;44550;43.864;25.986;2023-05-02T20:07:52;101730.25;;;15.52;40.37
58245;BME280;44550;43.864;25.986;2023-05-02T20:11:57;101726.75;;;15.48;40.46
58245;BME280;44550;43.864;25.986;2023-05-02T20:16:04;101726.75;;;15.47;40.41
58245;BME280;44550;43.864;25.986;2023-05-02T20:20:07;101735.53;;;15.44;40.53
58245;BME280;44550;43.864;25.986;2023-05-02T20:24:28;101729.34;;;15.36;40.67
58245;BME280;44550;43.864;25.986;2023-05-02T20:28:28;101730.22;;;15.31;41.00
58245;BME280;44550;43.864;25.986;2023-05-02T20:32:29;101728.44;;;15.33;41.05
58245;BME280;44550;43.864;25.986;2023-05-02T20:36:31;101728.38;;;15.11;41.41
58245;BME280;44550;43.864;25.986;2023-05-02T20:40:37;101730.97;;;15.02;41.69
58245;BME280;44550;43.864;25.986;2023-05-02T20:44:42;101726.53;;;14.96;41.91
58245;BME280;44550;43.864;25.986;2023-05-02T20:48:49;101730.06;;;14.91;42.22
58245;BME280;44550;43.864;25.986;2023-05-02T20:52:54;101723.00;;;14.84;42.19
58245;BME280;44550;43.864;25.986;2023-05-02T20:56:57;101721.22;;;14.78;42.29
58245;BME280;44550;43.864;25.986;2023-05-02T21:00:59;101715.91;;;14.70;42.46
58245;BME280;44550;43.864;25.986;2023-05-02T21:05:00;101717.66;;;14.68;42.30
58245;BME280;44550;43.864;25.986;2023-05-02T21:09:05;101722.88;;;14.61;42.52
58245;BME280;44550;43.864;25.986;2023-05-02T21:13:07;101721.97;;;14.60;42.49
58245;BME280;44550;43.864;25.986;2023-05-02T21:17:10;101716.72;;;14.57;42.32
58245;BME280;44550;43.864;25.986;2023-05-02T21:21:11;101730.72;;;14.54;42.59
58245;BME280;44550;43.864;25.986;2023-05-02T21:25:13;101737.66;;;14.46;42.59